sensor_id;sensor_type;location;lat;lon;timestamp;pressure;altitude;pressure_sealevel;temperature;humidity
28310;BME280;15571;50.974;13.936;2022-07-29T00:03:02;100247.28;;;19.04;79.85
28310;BME280;15571;50.974;13.936;2022-07-29T00:06:07;100251.00;;;19.00;80.31
28310;BME280;15571;50.974;13.936;2022-07-29T00:09:10;100249.28;;;18.99;80.01
28310;BME280;15571;50.974;13.936;2022-07-29T00:12:13;100247.66;;;18.95;80.16
28310;BME280;15571;50.974;13.936;2022-07-29T00:15:19;100256.88;;;18.85;81.45
28310;BME280;15571;50.974;13.936;2022-07-29T00:18:22;100252.63;;;18.80;82.53
28310;BME280;15571;50.974;13.936;2022-07-29T00:21:25;100247.63;;;18.73;84.32
28310;BME280;15571;50.974;13.936;2022-07-29T00:24:28;100246.75;;;18.72;85.18
28310;BME280;15571;50.974;13.936;2022-07-29T00:27:34;100254.66;;;18.74;85.74
28310;BME280;15571;50.974;13.936;2022-07-29T00:30:43;100241.44;;;18.72;87.17
28310;BME280;15571;50.974;13.936;2022-07-29T00:33:46;100249.72;;;18.64;88.95
28310;BME280;15571;50.974;13.936;2022-07-29T00:36:49;100242.03;;;18.57;90.38
28310;BME280;15571;50.974;13.936;2022-07-29T00:39:51;100233.28;;;18.55;90.43
28310;BME280;15571;50.974;13.936;2022-07-29T00:42:53;100224.53;;;18.52;90.73
28310;BME280;15571;50.974;13.936;2022-07-29T00:45:57;100221.09;;;18.50;90.12
28310;BME280;15571;50.974;13.936;2022-07-29T00:49:00;100224.03;;;18.43;90.02
28310;BME280;15571;50.974;13.936;2022-07-29T00:52:03;100221.56;;;18.38;90.42
28310;BME280;15571;50.974;13.936;2022-07-29T00:55:11;100215.63;;;18.31;93.13
28310;BME280;15571;50.974;13.936;2022-07-29T00:58:15;100216.34;;;18.35;93.57
28310;BME280;15571;50.974;13.936;2022-07-29T01:01:22;100212.16;;;18.29;95.35
28310;BME280;15571;50.974;13.936;2022-07-29T01:04:25;100209.81;;;18.22;96.47
28310;BME280;15571;50.974;13.936;2022-07-29T01:07:29;100207.94;;;18.24;96.80
28310;BME280;15571;50.974;13.936;2022-07-29T01:10:33;100208.13;;;18.19;97.94
28310;BME280;15571;50.974;13.936;2022-07-29T01:13:39;100198.59;;;18.13;99.95
28310;BME280;15571;50.974;13.936;2022-07-29T01:16:51;100200.59;;;18.08;100.00
28310;BME280;15571;50.974;13.936;2022-07-29T01:20:02;100198.03;;;18.05;100.00
28310;BME280;15571;50.974;13.936;2022-07-29T01:23:38;100193.56;;;18.07;100.00
28310;BME280;15571;50.974;13.936;2022-07-29T01:26:45;100186.63;;;18.03;100.00
28310;BME280;15571;50.974;13.936;2022-07-29T01:29:54;100193.06;;;17.96;100.00
28310;BME280;15571;50.974;13.936;2022-07-29T01:33:01;100193.19;;;17.93;100.00
28310;BME280;15571;50.974;13.936;2022-07-29T01:36:10;100196.75;;;17.92;100.00
28310;BME280;15571;50.974;13.936;2022-07-29T01:39:19;100191.63;;;17.87;100.00
28310;BME280;15571;50.974;13.936;2022-07-29T01:42:29;100178.41;;;17.85;100.00
28310;BME280;15571;50.974;13.936;2022-07-29T01:45:38;100184.63;;;17.84;100.00
28310;BME280;15571;50.974;13.936;2022-07-29T01:48:47;100181.13;;;17.84;100.00
28310;BME280;15571;50.974;13.936;2022-07-29T01:51:57;100175.09;;;17.80;100.00
28310;BME280;15571;50.974;13.936;2022-07-29T01:55:07;100171.72;;;17.75;100.00
28310;BME280;15571;50.974;13.936;2022-07-29T01:58:13;100172.72;;;17.72;100.00
28310;BME280;15571;50.974;13.936;2022-07-29T02:01:18;100174.59;;;17.69;100.00
28310;BME280;15571;50.974;13.936;2022-07-29T02:04:23;100171.16;;;17.67;100.00
28310;BME280;15571;50.974;13.936;2022-07-29T02:07:29;100175.78;;;17.60;100.00
28310;BME280;15571;50.974;13.936;2022-07-29T02:10:35;100187.44;;;17.54;100.00
28310;BME280;15571;50.974;13.936;2022-07-29T02:13:41;100179.34;;;17.59;100.00
28310;BME280;15571;50.974;13.936;2022-07-29T02:16:54;100176.00;;;17.54;100.00
28310;BME280;15571;50.974;13.936;2022-07-29T02:20:00;100170.81;;;17.51;100.00
28310;BME280;15571;50.974;13.936;2022-07-29T02:23:03;100171.69;;;17.51;100.00
28310;BME280;15571;50.974;13.936;2022-07-29T02:26:07;100182.28;;;17.51;100.00
28310;BME280;15571;50.974;13.936;2022-07-29T02:29:12;100176.75;;;17.57;100.00
28310;BME280;15571;50.974;13.936;2022-07-29T02:32:21;100175.34;;;17.47;100.00
28310;BME280;15571;50.974;13.936;2022-07-29T02:35:26;100173.53;;;17.49;100.00
28310;BME280;15571;50.974;13.936;2022-07-29T02:38:30;100172.63;;;17.50;100.00
28310;BME280;15571;50.974;13.936;2022-07-29T02:41:55;100170.06;;;17.47;100.00
28310;BME280;15571;50.974;13.936;2022-07-29T02:45:01;100164.72;;;17.49;100.00
28310;BME280;15571;50.974;13.936;2022-07-29T02:48:09;100160.28;;;17.49;100.00
28310;BME280;15571;50.974;13.936;2022-07-29T02:51:19;100165.66;;;17.48;100.00
28310;BME280;15571;50.974;13.936;2022-07-29T02:54:30;100162.94;;;17.49;100.00
28310;BME280;15571;50.974;13.936;2022-07-29T02:57:37;100168.34;;;17.46;100.00
28310;BME280;15571;50.974;13.936;2022-07-29T03:00:44;100173.78;;;17.41;100.00
28310;BME280;15571;50.974;13.936;2022-07-29T03:03:52;100166.56;;;17.47;100.00
28310;BME280;15571;50.974;13.936;2022-07-29T03:06:58;100168.47;;;17.43;100.00
28310;BME280;15571;50.974;13.936;2022-07-29T03:10:02;100167.66;;;17.41;100.00
28310;BME280;15571;50.974;13.936;2022-07-29T03:13:07;100163.28;;;17.40;100.00
28310;BME280;15571;50.974;13.936;2022-07-29T03:16:12;100172.06;;;17.40;100.00
28310;BME280;15571;50.974;13.936;2022-07-29T03:19:20;100165.00;;;17.41;100.00
28310;BME280;15571;50.974;13.936;2022-07-29T03:22:26;100171.97;;;17.43;100.00
28310;BME280;15571;50.974;13.936;2022-07-29T03:25:32;100164.94;;;17.42;100.00
28310;BME280;15571;50.974;13.936;2022-07-29T03:28:35;100166.81;;;17.39;100.00
28310;BME280;15571;50.974;13.936;2022-07-29T03:31:39;100161.75;;;17.33;100.00
28310;BME280;15571;50.974;13.936;2022-07-29T03:34:50;100153.75;;;17.34;100.00
28310;BME280;15571;50.974;13.936;2022-07-29T03:37:53;100154.75;;;17.32;100.00
28310;BME280;15571;50.974;13.936;2022-07-29T03:41:00;100145.97;;;17.30;100.00
28310;BME280;15571;50.974;13.936;2022-07-29T03:44:05;100151.19;;;17.33;100.00
28310;BME280;15571;50.974;13.936;2022-07-29T03:47:13;100150.28;;;17.32;100.00
28310;BME280;15571;50.974;13.936;2022-07-29T03:50:24;100152.19;;;17.29;100.00
28310;BME280;15571;50.974;13.936;2022-07-29T03:53:27;100144.34;;;17.25;100.00
28310;BME280;15571;50.974;13.936;2022-07-29T03:56:32;100140.69;;;17.30;100.00
28310;BME280;15571;50.974;13.936;2022-07-29T03:59:40;100135.47;;;17.28;100.00
28310;BME280;15571;50.974;13.936;2022-07-29T04:02:45;100143.56;;;17.23;100.00
28310;BME280;15571;50.974;13.936;2022-07-29T04:06:03;100148.94;;;17.20;100.00
28310;BME280;15571;50.974;13.936;2022-07-29T04:09:08;100142.53;;;17.27;100.00
28310;BME280;15571;50.974;13.936;2022-07-29T04:12:12;100142.53;;;17.27;100.00
28310;BME280;15571;50.974;13.936;2022-07-29T04:15:15;100139.72;;;17.32;100.00
28310;BME280;15571;50.974;13.936;2022-07-29T04:18:18;100137.03;;;17.34;100.00
28310;BME280;15571;50.974;13.936;2022-07-29T04:21:21;100138.03;;;17.30;100.00
28310;BME280;15571;50.974;13.936;2022-07-29T04:24:30;100149.53;;;17.29;100.00
28310;BME280;15571;50.974;13.936;2022-07-29T04:27:33;100148.63;;;17.30;100.00
28310;BME280;15571;50.974;13.936;2022-07-29T04:30:37;100150.25;;;17.34;100.00
28310;BME280;15571;50.974;13.936;2022-07-29T04:33:40;100145.75;;;17.36;100.00
28310;BME280;15571;50.974;13.936;2022-07-29T04:36:46;100152.69;;;17.40;100.00
28310;BME280;15571;50.974;13.936;2022-07-29T04:39:53;100145.66;;;17.39;100.00
28310;BME280;15571;50.974;13.936;2022-07-29T04:42:56;100149.13;;;17.41;100.00
28310;BME280;15571;50.974;13.936;2022-07-29T04:45:58;100144.59;;;17.45;100.00
28310;BME280;15571;50.974;13.936;2022-07-29T04:49:04;100148.06;;;17.45;100.00
28310;BME280;15571;50.974;13.936;2022-07-29T04:52:09;100152.25;;;17.52;100.00
28310;BME280;15571;50.974;13.936;2022-07-29T04:55:12;100150.72;;;17.45;100.00
28310;BME280;15571;50.974;13.936;2022-07-29T04:58:16;100150.63;;;17.48;100.00
28310;BME280;15571;50.974;13.936;2022-07-29T05:01:22;100152.44;;;17.48;100.00
28310;BME280;15571;50.974;13.936;2022-07-29T05:04:25;100149.53;;;17.54;100.00
28310;BME280;15571;50.974;13.936;2022-07-29T05:07:30;100152.69;;;17.65;100.00
28310;BME280;15571;50.974;13.936;2022-07-29T05:10:32;100146.50;;;17.65;100.00
28310;BME280;15571;50.974;13.936;2022-07-29T05:13:41;100149.69;;;17.74;100.00
28310;BME280;15571;50.974;13.936;2022-07-29T05:16:46;100150.28;;;17.83;100.00
28310;BME280;15571;50.974;13.936;2022-07-29T05:19:51;100147.56;;;17.84;100.00
28310;BME280;15571;50.974;13.936;2022-07-29T05:22:56;100145.81;;;17.83;100.00
28310;BME280;15571;50.974;13.936;2022-07-29T05:25:59;100145.44;;;17.94;100.00
28310;BME280;15571;50.974;13.936;2022-07-29T05:29:05;100142.56;;;18.02;100.00
28310;BME280;15571;50.974;13.936;2022-07-29T05:32:09;100140.56;;;18.07;100.00
28310;BME280;15571;50.974;13.936;2022-07-29T05:35:13;100138.63;;;18.12;100.00
28310;BME280;15571;50.974;13.936;2022-07-29T05:38:17;100143.75;;;18.17;100.00
28310;BME280;15571;50.974;13.936;2022-07-29T05:41:20;100150.16;;;18.11;100.00
28310;BME280;15571;50.974;13.936;2022-07-29T05:44:23;100140.84;;;18.23;100.00
28310;BME280;15571;50.974;13.936;2022-07-29T05:47:26;100147.47;;;18.35;100.00
28310;BME280;15571;50.974;13.936;2022-07-29T05:50:30;100145.38;;;18.43;100.00
28310;BME280;15571;50.974;13.936;2022-07-29T05:53:35;100144.78;;;18.59;100.00
28310;BME280;15571;50.974;13.936;2022-07-29T05:56:38;100140.03;;;18.67;100.00
28310;BME280;15571;50.974;13.936;2022-07-29T05:59:41;100141.69;;;18.70;100.00
28310;BME280;15571;50.974;13.936;2022-07-29T06:02:46;100135.00;;;18.81;100.00
28310;BME280;15571;50.974;13.936;2022-07-29T06:05:52;100132.22;;;18.85;100.00
28310;BME280;15571;50.974;13.936;2022-07-29T06:08:59;100124.00;;;18.91;100.00
28310;BME280;15571;50.974;13.936;2022-07-29T06:12:02;100132.81;;;18.93;100.00
28310;BME280;15571;50.974;13.936;2022-07-29T06:15:18;100138.00;;;18.96;100.00
28310;BME280;15571;50.974;13.936;2022-07-29T06:18:21;100137.72;;;19.02;100.00
28310;BME280;15571;50.974;13.936;2022-07-29T06:21:26;100136.59;;;19.08;100.00
28310;BME280;15571;50.974;13.936;2022-07-29T06:24:31;100141.66;;;19.14;100.00
28310;BME280;15571;50.974;13.936;2022-07-29T06:27:34;100148.44;;;19.21;100.00
28310;BME280;15571;50.974;13.936;2022-07-29T06:30:41;100133.34;;;19.22;100.00
28310;BME280;15571;50.974;13.936;2022-07-29T06:33:45;100142.72;;;19.31;100.00
28310;BME280;15571;50.974;13.936;2022-07-29T06:36:48;100145.06;;;19.38;100.00
28310;BME280;15571;50.974;13.936;2022-07-29T06:39:55;100136.94;;;19.41;100.00
28310;BME280;15571;50.974;13.936;2022-07-29T06:43:11;100141.78;;;19.52;100.00
28310;BME280;15571;50.974;13.936;2022-07-29T06:46:15;100146.75;;;19.60;100.00
28310;BME280;15571;50.974;13.936;2022-07-29T06:49:19;100157.31;;;19.62;100.00
28310;BME280;15571;50.974;13.936;2022-07-29T06:52:24;100155.38;;;19.65;100.00
28310;BME280;15571;50.974;13.936;2022-07-29T06:55:28;100150.06;;;19.65;100.00
28310;BME280;15571;50.974;13.936;2022-07-29T06:58:31;100157.50;;;19.78;100.00
28310;BME280;15571;50.974;13.936;2022-07-29T07:01:35;100153.03;;;19.78;100.00
28310;BME280;15571;50.974;13.936;2022-07-29T07:04:39;100154.38;;;19.88;100.00
28310;BME280;15571;50.974;13.936;2022-07-29T07:07:44;100154.09;;;19.95;100.00
28310;BME280;15571;50.974;13.936;2022-07-29T07:10:49;100148.53;;;20.01;100.00
28310;BME280;15571;50.974;13.936;2022-07-29T07:13:51;100148.44;;;20.02;100.00
28310;BME280;15571;50.974;13.936;2022-07-29T07:16:54;100151.00;;;20.04;100.00
28310;BME280;15571;50.974;13.936;2022-07-29T07:19:57;100141.75;;;20.13;100.00
28310;BME280;15571;50.974;13.936;2022-07-29T07:23:01;100151.13;;;20.21;100.00
28310;BME280;15571;50.974;13.936;2022-07-29T07:26:05;100137.44;;;20.29;100.00
28310;BME280;15571;50.974;13.936;2022-07-29T07:29:11;100139.75;;;20.37;100.00
28310;BME280;15571;50.974;13.936;2022-07-29T07:32:14;100138.44;;;20.46;100.00
28310;BME280;15571;50.974;13.936;2022-07-29T07:35:17;100133.84;;;20.49;100.00
28310;BME280;15571;50.974;13.936;2022-07-29T07:38:23;100136.28;;;20.54;100.00
28310;BME280;15571;50.974;13.936;2022-07-29T07:41:28;100127.06;;;20.61;100.00
28310;BME280;15571;50.974;13.936;2022-07-29T07:44:31;100133.56;;;20.73;100.00
28310;BME280;15571;50.974;13.936;2022-07-29T07:47:34;100131.59;;;20.78;100.00
28310;BME280;15571;50.974;13.936;2022-07-29T07:50:40;100127.31;;;20.93;100.00
28310;BME280;15571;50.974;13.936;2022-07-29T07:53:45;100129.59;;;21.01;100.00
28310;BME280;15571;50.974;13.936;2022-07-29T07:56:51;100128.09;;;21.13;100.00
28310;BME280;15571;50.974;13.936;2022-07-29T07:59:54;100129.34;;;21.23;100.00
28310;BME280;15571;50.974;13.936;2022-07-29T08:02:57;100116.63;;;21.28;100.00
28310;BME280;15571;50.974;13.936;2022-07-29T08:06:00;100106.38;;;21.38;100.00
28310;BME280;15571;50.974;13.936;2022-07-29T08:09:04;100112.06;;;21.48;100.00
28310;BME280;15571;50.974;13.936;2022-07-29T08:12:09;100116.00;;;21.58;100.00
28310;BME280;15571;50.974;13.936;2022-07-29T08:15:12;100112.84;;;21.68;100.00
28310;BME280;15571;50.974;13.936;2022-07-29T08:18:15;100112.34;;;21.77;99.57
28310;BME280;15571;50.974;13.936;2022-07-29T08:21:18;100102.31;;;21.82;99.21
28310;BME280;15571;50.974;13.936;2022-07-29T08:24:21;100103.78;;;21.88;98.89
28310;BME280;15571;50.974;13.936;2022-07-29T08:27:43;100102.75;;;21.90;98.34
28310;BME280;15571;50.974;13.936;2022-07-29T08:30:45;100088.56;;;22.06;97.34
28310;BME280;15571;50.974;13.936;2022-07-29T08:33:48;100093.22;;;22.18;97.61
28310;BME280;15571;50.974;13.936;2022-07-29T08:36:53;100089.09;;;22.29;97.57
28310;BME280;15571;50.974;13.936;2022-07-29T08:40:00;100084.97;;;22.39;95.95
28310;BME280;15571;50.974;13.936;2022-07-29T08:43:08;100087.97;;;22.49;95.00
28310;BME280;15571;50.974;13.936;2022-07-29T08:46:14;100087.03;;;22.50;94.02
28310;BME280;15571;50.974;13.936;2022-07-29T08:49:21;100074.38;;;22.53;94.06
28310;BME280;15571;50.974;13.936;2022-07-29T08:52:28;100080.88;;;22.64;93.73
28310;BME280;15571;50.974;13.936;2022-07-29T08:55:35;100081.59;;;22.67;93.25
28310;BME280;15571;50.974;13.936;2022-07-29T08:58:46;100082.56;;;22.81;89.10
28310;BME280;15571;50.974;13.936;2022-07-29T09:01:53;100068.13;;;22.85;89.23
28310;BME280;15571;50.974;13.936;2022-07-29T09:04:57;100073.84;;;22.93;89.36
28310;BME280;15571;50.974;13.936;2022-07-29T09:08:04;100069.19;;;22.97;78.50
28310;BME280;15571;50.974;13.936;2022-07-29T09:11:07;100069.28;;;23.10;74.65
28310;BME280;15571;50.974;13.936;2022-07-29T09:14:15;100065.91;;;23.22;76.41
28310;BME280;15571;50.974;13.936;2022-07-29T09:17:39;100069.47;;;23.37;73.40
28310;BME280;15571;50.974;13.936;2022-07-29T09:20:52;100064.63;;;23.44;73.30
28310;BME280;15571;50.974;13.936;2022-07-29T09:24:16;100063.16;;;23.53;71.58
28310;BME280;15571;50.974;13.936;2022-07-29T09:27:24;100055.56;;;23.61;70.02
28310;BME280;15571;50.974;13.936;2022-07-29T09:30:32;100057.25;;;23.76;71.01
28310;BME280;15571;50.974;13.936;2022-07-29T09:33:36;100061.03;;;23.87;71.41
28310;BME280;15571;50.974;13.936;2022-07-29T09:36:43;100053.78;;;23.89;69.11
28310;BME280;15571;50.974;13.936;2022-07-29T09:39:47;100053.22;;;23.98;67.18
28310;BME280;15571;50.974;13.936;2022-07-29T09:42:55;100050.44;;;24.14;65.04
28310;BME280;15571;50.974;13.936;2022-07-29T09:46:12;100050.97;;;24.19;66.34
28310;BME280;15571;50.974;13.936;2022-07-29T09:49:17;100052.94;;;24.30;64.21
28310;BME280;15571;50.974;13.936;2022-07-29T09:52:24;100049.75;;;24.38;63.93
28310;BME280;15571;50.974;13.936;2022-07-29T09:55:28;100056.94;;;24.37;60.59
28310;BME280;15571;50.974;13.936;2022-07-29T09:58:34;100045.50;;;24.48;61.35
28310;BME280;15571;50.974;13.936;2022-07-29T10:01:39;100047.56;;;24.58;60.39
28310;BME280;15571;50.974;13.936;2022-07-29T10:04:43;100042.09;;;24.59;60.11
28310;BME280;15571;50.974;13.936;2022-07-29T10:07:47;100044.91;;;24.58;56.80
28310;BME280;15571;50.974;13.936;2022-07-29T10:10:50;100045.81;;;24.71;55.30
28310;BME280;15571;50.974;13.936;2022-07-29T10:13:55;100043.59;;;24.78;56.39
28310;BME280;15571;50.974;13.936;2022-07-29T10:17:02;100043.59;;;24.78;55.60
28310;BME280;15571;50.974;13.936;2022-07-29T10:20:07;100049.47;;;24.83;54.99
28310;BME280;15571;50.974;13.936;2022-07-29T10:23:11;100040.50;;;24.84;55.74
28310;BME280;15571;50.974;13.936;2022-07-29T10:26:15;100043.69;;;24.89;55.28
28310;BME280;15571;50.974;13.936;2022-07-29T10:29:24;100042.00;;;24.88;54.44
28310;BME280;15571;50.974;13.936;2022-07-29T10:32:38;100043.06;;;24.98;55.26
28310;BME280;15571;50.974;13.936;2022-07-29T10:36:08;100037.09;;;25.08;54.08
28310;BME280;15571;50.974;13.936;2022-07-29T10:39:22;100036.22;;;25.20;52.56
28310;BME280;15571;50.974;13.936;2022-07-29T10:42:30;100038.50;;;25.26;51.64
28310;BME280;15571;50.974;13.936;2022-07-29T10:45:34;100039.00;;;25.31;52.44
28310;BME280;15571;50.974;13.936;2022-07-29T10:49:04;100035.03;;;25.37;52.26
28310;BME280;15571;50.974;13.936;2022-07-29T10:52:09;100031.94;;;25.43;51.49
28310;BME280;15571;50.974;13.936;2022-07-29T10:55:37;100031.19;;;25.54;52.13
28310;BME280;15571;50.974;13.936;2022-07-29T10:58:43;100032.47;;;25.61;50.44
28310;BME280;15571;50.974;13.936;2022-07-29T11:01:50;100031.94;;;25.69;48.81
28310;BME280;15571;50.974;13.936;2022-07-29T11:05:04;100023.63;;;25.72;48.76
28310;BME280;15571;50.974;13.936;2022-07-29T11:08:17;100022.66;;;25.86;47.63
28310;BME280;15571;50.974;13.936;2022-07-29T11:11:31;100026.06;;;25.88;48.70
28310;BME280;15571;50.974;13.936;2022-07-29T11:14:57;100025.56;;;25.83;49.58
28310;BME280;15571;50.974;13.936;2022-07-29T11:18:09;100019.31;;;25.83;50.80
28310;BME280;15571;50.974;13.936;2022-07-29T11:21:37;100026.06;;;25.88;49.16
28310;BME280;15571;50.974;13.936;2022-07-29T11:24:41;100027.78;;;25.89;50.03
28310;BME280;15571;50.974;13.936;2022-07-29T11:27:47;100023.50;;;25.87;50.78
28310;BME280;15571;50.974;13.936;2022-07-29T11:30:53;100021.66;;;25.87;48.70
28310;BME280;15571;50.974;13.936;2022-07-29T11:34:22;100027.22;;;25.97;48.42
28310;BME280;15571;50.974;13.936;2022-07-29T11:37:31;100020.16;;;25.96;47.42
28310;BME280;15571;50.974;13.936;2022-07-29T11:40:36;100024.72;;;26.07;48.21
28310;BME280;15571;50.974;13.936;2022-07-29T11:43:49;100023.25;;;26.03;48.57
28310;BME280;15571;50.974;13.936;2022-07-29T11:46:53;100015.94;;;26.05;49.22
28310;BME280;15571;50.974;13.936;2022-07-29T11:50:03;100016.00;;;26.16;49.58
28310;BME280;15571;50.974;13.936;2022-07-29T11:53:13;100017.00;;;26.15;49.07
28310;BME280;15571;50.974;13.936;2022-07-29T11:56:24;100009.69;;;26.17;49.75
28310;BME280;15571;50.974;13.936;2022-07-29T11:59:30;100008.22;;;26.13;49.90
28310;BME280;15571;50.974;13.936;2022-07-29T12:02:50;100004.56;;;26.14;50.20
28310;BME280;15571;50.974;13.936;2022-07-29T12:05:54;100010.56;;;26.18;49.97
28310;BME280;15571;50.974;13.936;2022-07-29T12:09:00;100011.19;;;26.21;49.48
28310;BME280;15571;50.974;13.936;2022-07-29T12:12:07;100003.19;;;26.33;49.70
28310;BME280;15571;50.974;13.936;2022-07-29T12:15:15;100001.75;;;26.40;50.16
28310;BME280;15571;50.974;13.936;2022-07-29T12:18:23;100002.72;;;26.39;49.32
28310;BME280;15571;50.974;13.936;2022-07-29T12:21:43;100006.63;;;26.46;49.01
28310;BME280;15571;50.974;13.936;2022-07-29T12:24:50;100002.00;;;26.48;49.78
28310;BME280;15571;50.974;13.936;2022-07-29T12:28:01;100000.81;;;26.52;49.81
28310;BME280;15571;50.974;13.936;2022-07-29T12:31:13;100006.69;;;26.57;48.96
28310;BME280;15571;50.974;13.936;2022-07-29T12:34:21;99995.22;;;26.67;49.32
28310;BME280;15571;50.974;13.936;2022-07-29T12:37:25;99987.44;;;26.75;49.09
28310;BME280;15571;50.974;13.936;2022-07-29T12:40:33;99976.50;;;26.78;47.39
28310;BME280;15571;50.974;13.936;2022-07-29T12:43:37;99986.53;;;26.87;48.03
28310;BME280;15571;50.974;13.936;2022-07-29T12:46:42;99980.06;;;26.90;48.31
28310;BME280;15571;50.974;13.936;2022-07-29T12:50:09;99975.41;;;26.92;48.07
28310;BME280;15571;50.974;13.936;2022-07-29T12:53:17;99982.63;;;26.92;48.09
28310;BME280;15571;50.974;13.936;2022-07-29T12:56:25;99985.34;;;27.03;47.84
28310;BME280;15571;50.974;13.936;2022-07-29T12:59:32;99980.81;;;27.03;47.42
28310;BME280;15571;50.974;13.936;2022-07-29T13:02:38;99979.47;;;27.09;46.25
28310;BME280;15571;50.974;13.936;2022-07-29T13:05:46;99967.75;;;27.22;46.35
28310;BME280;15571;50.974;13.936;2022-07-29T13:09:04;99969.47;;;27.23;45.60
28310;BME280;15571;50.974;13.936;2022-07-29T13:12:11;99969.22;;;27.26;46.20
28310;BME280;15571;50.974;13.936;2022-07-29T13:15:21;99967.03;;;27.31;46.35
28310;BME280;15571;50.974;13.936;2022-07-29T13:18:28;99972.41;;;27.31;45.90
28310;BME280;15571;50.974;13.936;2022-07-29T13:21:35;99960.53;;;27.33;45.58
28310;BME280;15571;50.974;13.936;2022-07-29T13:24:52;99959.94;;;27.30;45.34
28310;BME280;15571;50.974;13.936;2022-07-29T13:27:59;99954.06;;;27.36;45.48
28310;BME280;15571;50.974;13.936;2022-07-29T13:31:03;99971.66;;;27.40;44.48
28310;BME280;15571;50.974;13.936;2022-07-29T13:34:09;99958.63;;;27.47;44.17
28310;BME280;15571;50.974;13.936;2022-07-29T13:37:15;99960.19;;;27.49;44.92
28310;BME280;15571;50.974;13.936;2022-07-29T13:40:22;99956.78;;;27.47;44.20
28310;BME280;15571;50.974;13.936;2022-07-29T13:43:44;99965.81;;;27.46;43.86
28310;BME280;15571;50.974;13.936;2022-07-29T13:46:48;99947.22;;;27.43;44.31
28310;BME280;15571;50.974;13.936;2022-07-29T13:49:57;99958.72;;;27.45;43.87
28310;BME280;15571;50.974;13.936;2022-07-29T13:53:02;99954.41;;;27.43;44.28
28310;BME280;15571;50.974;13.936;2022-07-29T13:56:05;99951.13;;;27.39;44.70
28310;BME280;15571;50.974;13.936;2022-07-29T13:59:11;99952.50;;;27.45;44.12
28310;BME280;15571;50.974;13.936;2022-07-29T14:02:17;99943.81;;;27.41;44.45
28310;BME280;15571;50.974;13.936;2022-07-29T14:05:22;99950.28;;;27.50;43.86
28310;BME280;15571;50.974;13.936;2022-07-29T14:08:30;99946.97;;;27.58;42.87
28310;BME280;15571;50.974;13.936;2022-07-29T14:11:38;99951.38;;;27.70;43.09
28310;BME280;15571;50.974;13.936;2022-07-29T14:14:44;99941.34;;;27.72;42.27
28310;BME280;15571;50.974;13.936;2022-07-29T14:17:50;99934.94;;;27.73;42.31
28310;BME280;15571;50.974;13.936;2022-07-29T14:20:55;99937.66;;;27.73;42.25
28310;BME280;15571;50.974;13.936;2022-07-29T14:24:05;99933.00;;;27.75;43.05
28310;BME280;15571;50.974;13.936;2022-07-29T14:27:09;99932.16;;;27.75;42.76
28310;BME280;15571;50.974;13.936;2022-07-29T14:30:17;99936.41;;;27.77;42.79
28310;BME280;15571;50.974;13.936;2022-07-29T14:33:24;99930.53;;;27.84;42.73
28310;BME280;15571;50.974;13.936;2022-07-29T14:36:30;99926.84;;;27.85;42.79
28310;BME280;15571;50.974;13.936;2022-07-29T14:39:49;99926.13;;;27.83;41.16
28310;BME280;15571;50.974;13.936;2022-07-29T14:43:05;99931.50;;;27.83;41.85
28310;BME280;15571;50.974;13.936;2022-07-29T14:46:10;99929.34;;;27.76;42.52
28310;BME280;15571;50.974;13.936;2022-07-29T14:49:13;99929.84;;;27.70;42.57
28310;BME280;15571;50.974;13.936;2022-07-29T14:52:17;99935.81;;;27.74;41.72
28310;BME280;15571;50.974;13.936;2022-07-29T14:55:41;99935.34;;;27.69;42.17
28310;BME280;15571;50.974;13.936;2022-07-29T14:58:44;99930.59;;;27.72;42.46
28310;BME280;15571;50.974;13.936;2022-07-29T15:01:48;99931.88;;;27.78;41.91
28310;BME280;15571;50.974;13.936;2022-07-29T15:04:50;99934.47;;;27.79;42.09
28310;BME280;15571;50.974;13.936;2022-07-29T15:07:53;99929.81;;;27.82;42.62
28310;BME280;15571;50.974;13.936;2022-07-29T15:10:57;99930.53;;;27.84;41.62
28310;BME280;15571;50.974;13.936;2022-07-29T15:14:00;99921.47;;;27.85;42.27
28310;BME280;15571;50.974;13.936;2022-07-29T15:17:04;99909.28;;;27.80;40.84
28310;BME280;15571;50.974;13.936;2022-07-29T15:20:09;99907.56;;;27.79;42.44
28310;BME280;15571;50.974;13.936;2022-07-29T15:23:12;99911.59;;;27.85;43.75
28310;BME280;15571;50.974;13.936;2022-07-29T15:26:16;99911.97;;;27.80;42.90
28310;BME280;15571;50.974;13.936;2022-07-29T15:29:20;99905.63;;;27.82;42.35
28310;BME280;15571;50.974;13.936;2022-07-29T15:32:32;99911.09;;;27.80;42.59
28310;BME280;15571;50.974;13.936;2022-07-29T15:35:36;99911.25;;;27.78;43.03
28310;BME280;15571;50.974;13.936;2022-07-29T15:38:39;99902.44;;;27.76;43.10
28310;BME280;15571;50.974;13.936;2022-07-29T15:41:43;99906.38;;;27.72;43.12
28310;BME280;15571;50.974;13.936;2022-07-29T15:44:47;99899.88;;;27.75;42.64
28310;BME280;15571;50.974;13.936;2022-07-29T15:47:51;99901.31;;;27.79;42.88
28310;BME280;15571;50.974;13.936;2022-07-29T15:50:58;99894.88;;;27.82;42.44
28310;BME280;15571;50.974;13.936;2022-07-29T15:54:05;99890.66;;;27.89;42.15
28310;BME280;15571;50.974;13.936;2022-07-29T15:57:11;99883.59;;;27.88;42.82
28310;BME280;15571;50.974;13.936;2022-07-29T16:00:16;99880.88;;;27.88;42.50
28310;BME280;15571;50.974;13.936;2022-07-29T16:03:24;99881.03;;;27.86;42.87